RFD weather

Chicago Rockford International Airport
Chicago/Rockford, Illinois, United States

Public forecast

Using degrees Fahrenheit for public forecast. Weather courtesy of forecast.io.

Current aviation weather report (METAR) for Chicago Rockford International Airport

Retrieved 2019/11/12 21:54 UTC (30 minutes ago):

KRFD 122154Z 27006KT 10SM SCT220 SCT250 M09/M18 A3047 RMK AO2 SLP334 T10941183

Aviation forecast (TAF) for Chicago Rockford International Airport

Retrieved 2019/11/12 21:57 UTC (27 minutes ago):

TAF KRFD 122052Z 1221/1318 28008KT P6SM SKC FM122300 22005KT P6SM SCT250 FM130800 18011KT P6SM BKN150 FM131400 19016G24KT P6SM OVC150